ADDS METAR Data INFO
IDs: Format: Raw Decoded Include TAF

Data at: 0114 UTC 21 Oct 2017

KEIK 210056Z AUTO 21004KT 10SM CLR 13/02 A2956 RMK AO2 T01340015
KEIK 210038Z AUTO 00000KT 10SM CLR 17/00 A2956 RMK AO2 T01741001
KEIK 210014Z AUTO 00000KT 10SM CLR 19/00 A2957 RMK AO2 T01850002
KEIK 202353Z AUTO 04004KT 10SM CLR 22/M01 A2955 RMK AO2 T02171011
KEIK 202335Z AUTO 07007KT 10SM CLR 23/M01 A2954 RMK AO2 T02291013
KEIK 202317Z AUTO 03005KT 10SM CLR 23/M01 A2957 RMK AO2 T02331014
KEIK 202254Z AUTO 05005KT 10SM CLR 24/M02 A2958 RMK AO2 T02411021
KEIK 202236Z AUTO 04010KT 10SM SCT120 25/M02 A2958 RMK AO2 T02471021
KEIK 202218Z AUTO 03007KT 10SM BKN110 25/M03 A2959 RMK AO2 T02541035
KEIK 202153Z AUTO 00000KT 10SM BKN110 24/M01 A2959 RMK AO2 T02441013
KEIK 202135Z AUTO 08004KT 10SM SCT120 24/M03 A2959 RMK AO2 T02441028
KEIK 202112Z AUTO 00000KT 10SM CLR 26/M03 A2959 RMK AO2 T02551032
KEIK 202054Z AUTO 07005KT 10SM CLR 24/M03 A2959 RMK AO2 T02421034
KEIK 202036Z AUTO 11004KT 10SM CLR 25/M03 A2960 RMK AO2 T02461028
KEIK 202012Z AUTO 10009KT 10SM CLR 25/M02 A2961 RMK AO2 T02521025
KEIK 201953Z AUTO 11005KT 10SM CLR 25/M03 A2962 RMK AO2 T02471035
KEIK 201935Z AUTO 10006KT 10SM CLR 25/M03 A2963 RMK AO2 T02461026
KEIK 201918Z AUTO 14009KT 080V180 10SM CLR 25/M02 A2964 RMK AO2 T02461025
KEIK 201854Z AUTO 18004KT 10SM CLR 24/M02 A2965 RMK AO2 T02421018
KEIK 201836Z AUTO 13005KT 10SM CLR 24/M02 A2967 RMK AO2 T02421016
KEIK 201812Z AUTO 15004KT 10SM CLR 24/M01 A2967 RMK AO2 T02361012
KEIK 201753Z AUTO 09004KT 10SM CLR 23/00 A2969 RMK AO2 T02301002
KEIK 201735Z AUTO 35004KT 10SM CLR 22/00 A2972 RMK AO2 T02200001
KEIK 201712Z AUTO 01004KT 10SM CLR 21/03 A2974 RMK AO2 T02110025
KEIK 201653Z AUTO 00000KT 10SM CLR 20/02 A2974 RMK AO2 T01950017
KEIK 201635Z AUTO 06003KT 10SM CLR 18/02 A2976 RMK AO2 T01790021
KEIK 201612Z AUTO 36003KT 10SM CLR 17/03 A2976 RMK AO2 T01650025
KEIK 201554Z AUTO 07003KT 10SM CLR 15/02 A2977 RMK AO2 T01540024
KEIK 201536Z AUTO 00000KT 10SM CLR 14/03 A2978 RMK AO2 T01400025
KEIK 201512Z AUTO 00000KT 10SM CLR 12/02 A2978 RMK AO2 T01160021
KEIK 201454Z AUTO 00000KT 10SM CLR 10/03 A2980 RMK AO2 T01010026
KEIK 201436Z AUTO 00000KT 10SM CLR 09/03 A2980 RMK AO2 T00870028
KEIK 201412Z AUTO 34004KT 10SM CLR 06/02 A2980 RMK AO2 T00560022
KEIK 201354Z AUTO 35004KT 10SM CLR 05/01 A2980 RMK AO2 T00460009
KEIK 201336Z AUTO 18003KT 10SM CLR 05/01 A2980 RMK AO2 T00450005
KEIK 201312Z AUTO 17003KT 10SM CLR 04/01 A2980 RMK AO2 T00380005
KEIK 201254Z AUTO 00000KT 10SM CLR 04/00 A2980 RMK AO2 T00380003
KEIK 201236Z AUTO 00000KT 10SM CLR 04/00 A2981 RMK AO2 T00370000
KEIK 201212Z AUTO 00000KT 10SM CLR 04/00 A2982 RMK AO2 T00380002
KEIK 201153Z AUTO 00000KT 10SM CLR 04/00 A2982 RMK AO2 T00380002
KEIK 201135Z AUTO 00000KT 10SM CLR 06/00 A2982 RMK AO2 T00550002
KEIK 201118Z AUTO 20003KT 10SM CLR 04/01 A2982 RMK AO2 T00440005
KEIK 201054Z AUTO 20005KT 10SM CLR 05/00 A2983 RMK AO2 T00500003
KEIK 201036Z AUTO 19004KT 10SM CLR 04/00 A2984 RMK AO2 T00430002
KEIK 201018Z AUTO 00000KT 10SM CLR 03/00 A2984 RMK AO2 T00340003
KEIK 200954Z AUTO 20004KT 10SM CLR 05/00 A2985 RMK AO2 T00450004
KEIK 200936Z AUTO 00000KT 10SM CLR 04/01 A2986 RMK AO2 T00350005
KEIK 200918Z AUTO 00000KT 10SM CLR 03/00 A2986 RMK AO2 T00320004
KEIK 200854Z AUTO 00000KT 10SM CLR 04/00 A2987 RMK AO2 T00410003
KEIK 200836Z AUTO 00000KT 10SM CLR 05/01 A2988 RMK AO2 T00450007
KEIK 200818Z AUTO 00000KT 10SM CLR 04/01 A2988 RMK AO2 T00400009
KEIK 200754Z AUTO 00000KT 10SM CLR 05/01 A2988 RMK AO2 T00510006
KEIK 200736Z AUTO 00000KT 10SM CLR 05/01 A2989 RMK AO2 T00470009
KEIK 200718Z AUTO 00000KT 10SM CLR 04/01 A2990 RMK AO2 T00400010
KEIK 200653Z AUTO 00000KT 10SM CLR 05/00 A2990 RMK AO2 T00480004
KEIK 200636Z AUTO 00000KT 10SM CLR 06/01 A2990 RMK AO2 T00570005
KEIK 200618Z AUTO 00000KT 10SM CLR 06/01 A2991 RMK AO2 T00570005
KEIK 200554Z AUTO 00000KT 10SM CLR 05/01 A2991 RMK AO2 T00530010
KEIK 200536Z AUTO 00000KT 10SM CLR 06/01 A2993 RMK AO2 T00630007
KEIK 200518Z AUTO 00000KT 10SM CLR 06/01 A2993 RMK AO2 T00640007
KEIK 200454Z AUTO 00000KT 10SM CLR 07/01 A2994 RMK AO2 T00690009
KEIK 200436Z AUTO 00000KT 10SM CLR 07/01 A2994 RMK AO2 T00650011
KEIK 200418Z AUTO 18003KT 10SM CLR 08/01 A2994 RMK AO2 T00760009
KEIK 200354Z AUTO 00000KT 10SM CLR 08/01 A2995 RMK AO2 T00830006
KEIK 200336Z AUTO 19003KT 10SM CLR 08/01 A2995 RMK AO2 T00810010
KEIK 200318Z AUTO 00000KT 10SM CLR 08/01 A2995 RMK AO2 T00840014
KEIK 200254Z AUTO 19003KT 10SM CLR 08/01 A2995 RMK AO2 T00810014
KEIK 200236Z AUTO 21003KT 10SM CLR 09/01 A2995 RMK AO2 T00850014
KEIK 200218Z AUTO 00000KT 10SM CLR 09/02 A2995 RMK AO2 T00870015
KEIK 200154Z AUTO 00000KT 10SM CLR 10/02 A2995 RMK AO2 T00960017
KEIK 200136Z AUTO 00000KT 10SM CLR 09/02 A2995 RMK AO2 T00900021
KEIK 200112Z AUTO 00000KT 10SM CLR 12/02 A2995 RMK AO2 T01150019
KEIK 200056Z AUTO 00000KT 10SM CLR 12/02 A2995 RMK AO2 T01170020
KEIK 200032Z AUTO 00000KT 10SM CLR 16/00 A2995 RMK AO2 T01560001
KEIK 200014Z AUTO 00000KT 10SM CLR 17/00 A2995 RMK AO2 T01680004
KEIK 192354Z AUTO 00000KT 10SM CLR 18/00 A2995 RMK AO2 T01840003
KEIK 192336Z AUTO 00000KT 10SM CLR 18/01 A2996 RMK AO2 T01830006
KEIK 192312Z AUTO 00000KT 10SM CLR 21/M01 A2996 RMK AO2 T02051015
KEIK 192254Z AUTO 04003KT 10SM CLR 22/M03 A2997 RMK AO2 T02151034
KEIK 192236Z AUTO 36004KT 10SM CLR 21/M03 A2997 RMK AO2 T02101034
KEIK 192212Z AUTO 03004KT 10SM CLR 22/M04 A2997 RMK AO2 T02171040
KEIK 192154Z AUTO 02004KT 10SM CLR 22/M04 A2997 RMK AO2 T02241039
KEIK 192136Z AUTO 01004KT 10SM CLR 23/M05 A2998 RMK AO2 T02251048
KEIK 192112Z AUTO 35006KT 10SM CLR 23/M06 A2998 RMK AO2 T02311056
KEIK 192054Z AUTO 36005KT 10SM CLR 23/M05 A2998 RMK AO2 T02311051
KEIK 192036Z AUTO 36006KT 10SM CLR 22/M04 A2999 RMK AO2 T02241041
KEIK 192012Z AUTO 00000KT 10SM CLR 22/M05 A3001 RMK AO2 T02211054
KEIK 191954Z AUTO 09003KT 10SM CLR 22/M05 A3001 RMK AO2 T02231052
KEIK 191936Z AUTO 04004KT 10SM CLR 23/M08 A3002 RMK AO2 T02281077
KEIK 191912Z AUTO 00000KT 10SM CLR 22/M07 A3004 RMK AO2 T02201067
KEIK 191854Z AUTO 00000KT 10SM CLR 21/M08 A3005 RMK AO2 T02101081
KEIK 191836Z AUTO 00000KT 10SM CLR 20/M07 A3006 RMK AO2 T02041073
KEIK 191818Z AUTO 00000KT 10SM CLR 20/M07 A3007 RMK AO2 T02031072
KEIK 191754Z AUTO 00000KT 10SM CLR 20/M07 A3008 RMK AO2 T01951074
KEIK 191736Z AUTO 00000KT 10SM CLR 19/M06 A3009 RMK AO2 T01901056
KEIK 191718Z AUTO 00000KT 10SM CLR 19/M06 A3010 RMK AO2 T01871058
KEIK 191653Z AUTO 00000KT 10SM CLR 18/M06 A3011 RMK AO2 T01781059
KEIK 191635Z AUTO 17003KT 10SM CLR 17/M06 A3012 RMK AO2 T01701063
KEIK 191617Z AUTO 15005KT 10SM CLR 17/M06 A3012 RMK AO2 T01651058
KEIK 191557Z AUTO 19003KT 10SM CLR 15/M04 A3012 RMK AO2 T01481043
KEIK 191535Z AUTO 00000KT 10SM CLR 12/M01 A3013 RMK AO2 T01221012
KEIK 191518Z AUTO 00000KT 10SM CLR 10/M02 A3013 RMK AO2 T01011016
KEIK 191458Z AUTO 00000KT 10SM CLR 08/M01 A3014 RMK AO2 T00781010
KEIK 191435Z AUTO 14003KT 10SM CLR 05/M01 A3014 RMK AO2 T00511010
KEIK 191418Z AUTO 00000KT 10SM CLR 03/M01 A3013 RMK AO2 T00281015
KEIK 191354Z AUTO 00000KT 10SM CLR 02/M03 A3013 RMK AO2 T00161028
KEIK 191336Z AUTO 00000KT 10SM CLR 00/M03 A3012 RMK AO2 T00041026
KEIK 191318Z AUTO 00000KT 10SM CLR 02/M03 A3013 RMK AO2 T00171031